sensor_id;sensor_type;location;lat;lon;timestamp;pressure;altitude;pressure_sealevel;temperature;humidity
57763;BME280;43592;42.524;12.052;2023-05-09T00:01:36;96823.41;;;13.34;100.00
57763;BME280;43592;42.524;12.052;2023-05-09T00:04:01;96828.00;;;13.33;100.00
57763;BME280;43592;42.524;12.052;2023-05-09T00:06:27;96820.28;;;13.32;100.00
57763;BME280;43592;42.524;12.052;2023-05-09T00:08:53;96826.38;;;13.29;100.00
57763;BME280;43592;42.524;12.052;2023-05-09T00:11:18;96824.81;;;13.28;100.00
57763;BME280;43592;42.524;12.052;2023-05-09T00:13:44;96823.59;;;13.25;100.00
57763;BME280;43592;42.524;12.052;2023-05-09T00:16:10;96821.59;;;13.22;100.00
57763;BME280;43592;42.524;12.052;2023-05-09T00:18:36;96817.72;;;13.19;100.00
57763;BME280;43592;42.524;12.052;2023-05-09T00:21:01;96814.16;;;13.15;100.00
57763;BME280;43592;42.524;12.052;2023-05-09T00:23:28;96814.84;;;13.12;100.00
57763;BME280;43592;42.524;12.052;2023-05-09T00:25:54;96811.31;;;13.08;100.00
57763;BME280;43592;42.524;12.052;2023-05-09T00:28:19;96810.53;;;13.08;100.00
57763;BME280;43592;42.524;12.052;2023-05-09T00:30:45;96822.06;;;13.08;100.00
57763;BME280;43592;42.524;12.052;2023-05-09T00:33:10;96823.19;;;13.07;100.00
57763;BME280;43592;42.524;12.052;2023-05-09T00:35:36;96807.50;;;13.09;100.00
57763;BME280;43592;42.524;12.052;2023-05-09T00:38:02;96813.66;;;13.10;100.00
57763;BME280;43592;42.524;12.052;2023-05-09T00:40:28;96811.31;;;13.08;100.00
57763;BME280;43592;42.524;12.052;2023-05-09T00:42:54;96815.13;;;13.07;100.00
57763;BME280;43592;42.524;12.052;2023-05-09T00:45:22;96808.53;;;13.04;100.00
57763;BME280;43592;42.524;12.052;2023-05-09T00:47:48;96804.31;;;13.03;100.00
57763;BME280;43592;42.524;12.052;2023-05-09T00:50:13;96809.59;;;13.00;100.00
57763;BME280;43592;42.524;12.052;2023-05-09T00:52:39;96806.47;;;12.98;100.00
57763;BME280;43592;42.524;12.052;2023-05-09T00:55:05;96804.94;;;12.97;100.00
57763;BME280;43592;42.524;12.052;2023-05-09T00:57:32;96805.72;;;12.97;100.00
57763;BME280;43592;42.524;12.052;2023-05-09T00:59:59;96800.41;;;13.01;100.00
57763;BME280;43592;42.524;12.052;2023-05-09T01:02:24;96795.47;;;13.03;100.00
57763;BME280;43592;42.524;12.052;2023-05-09T01:04:50;96792.84;;;13.07;100.00
57763;BME280;43592;42.524;12.052;2023-05-09T01:07:18;96796.41;;;13.11;100.00
57763;BME280;43592;42.524;12.052;2023-05-09T01:12:29;96793.88;;;13.18;100.00
57763;BME280;43592;42.524;12.052;2023-05-09T01:22:38;96798.03;;;13.31;100.00
57763;BME280;43592;42.524;12.052;2023-05-09T01:25:27;96794.63;;;13.34;100.00
57763;BME280;43592;42.524;12.052;2023-05-09T01:30:24;96795.81;;;13.37;100.00
57763;BME280;43592;42.524;12.052;2023-05-09T01:32:50;96800.50;;;13.40;100.00
57763;BME280;43592;42.524;12.052;2023-05-09T01:35:16;96803.25;;;13.43;100.00
57763;BME280;43592;42.524;12.052;2023-05-09T01:37:42;96797.53;;;13.45;100.00
57763;BME280;43592;42.524;12.052;2023-05-09T01:40:11;96805.66;;;13.48;100.00
57763;BME280;43592;42.524;12.052;2023-05-09T01:42:41;96798.81;;;13.51;100.00
57763;BME280;43592;42.524;12.052;2023-05-09T01:45:08;96799.25;;;13.53;100.00
57763;BME280;43592;42.524;12.052;2023-05-09T01:47:34;96800.78;;;13.54;100.00
57763;BME280;43592;42.524;12.052;2023-05-09T01:50:01;96801.22;;;13.56;100.00
57763;BME280;43592;42.524;12.052;2023-05-09T01:52:27;96792.44;;;13.59;100.00
57763;BME280;43592;42.524;12.052;2023-05-09T01:54:53;96802.47;;;13.62;100.00
57763;BME280;43592;42.524;12.052;2023-05-09T01:57:20;96807.91;;;13.66;100.00
57763;BME280;43592;42.524;12.052;2023-05-09T01:59:46;96803.31;;;13.66;100.00
57763;BME280;43592;42.524;12.052;2023-05-09T02:02:12;96798.00;;;13.70;100.00
57763;BME280;43592;42.524;12.052;2023-05-09T02:04:39;96801.13;;;13.72;100.00
57763;BME280;43592;42.524;12.052;2023-05-09T02:07:05;96794.25;;;13.75;100.00
57763;BME280;43592;42.524;12.052;2023-05-09T02:09:32;96793.19;;;13.79;100.00
57763;BME280;43592;42.524;12.052;2023-05-09T02:11:57;96790.56;;;13.83;100.00
57763;BME280;43592;42.524;12.052;2023-05-09T02:14:23;96787.94;;;13.86;100.00
57763;BME280;43592;42.524;12.052;2023-05-09T02:16:48;96794.53;;;13.89;100.00
57763;BME280;43592;42.524;12.052;2023-05-09T02:19:14;96784.19;;;13.91;100.00
57763;BME280;43592;42.524;12.052;2023-05-09T02:21:41;96786.88;;;13.91;100.00
57763;BME280;43592;42.524;12.052;2023-05-09T02:24:06;96787.66;;;13.91;100.00
57763;BME280;43592;42.524;12.052;2023-05-09T02:26:32;96791.88;;;13.92;100.00
57763;BME280;43592;42.524;12.052;2023-05-09T02:28:57;96794.66;;;13.96;100.00
57763;BME280;43592;42.524;12.052;2023-05-09T02:31:23;96795.06;;;13.98;100.00
57763;BME280;43592;42.524;12.052;2023-05-09T02:33:50;96801.59;;;13.97;100.00
57763;BME280;43592;42.524;12.052;2023-05-09T02:36:17;96798.13;;;13.97;100.00
57763;BME280;43592;42.524;12.052;2023-05-09T02:38:42;96800.75;;;13.93;100.00
57763;BME280;43592;42.524;12.052;2023-05-09T02:41:12;96799.97;;;13.92;100.00
57763;BME280;43592;42.524;12.052;2023-05-09T02:43:38;96794.94;;;13.91;100.00
57763;BME280;43592;42.524;12.052;2023-05-09T02:46:03;96799.56;;;13.90;100.00
57763;BME280;43592;42.524;12.052;2023-05-09T02:48:29;96800.66;;;13.89;100.00
57763;BME280;43592;42.524;12.052;2023-05-09T02:50:54;96797.97;;;13.89;100.00
57763;BME280;43592;42.524;12.052;2023-05-09T02:53:21;96786.81;;;13.87;100.00
57763;BME280;43592;42.524;12.052;2023-05-09T02:55:47;96792.53;;;13.86;100.00
57763;BME280;43592;42.524;12.052;2023-05-09T02:58:12;96786.38;;;13.85;100.00
57763;BME280;43592;42.524;12.052;2023-05-09T03:00:38;96788.66;;;13.83;100.00
57763;BME280;43592;42.524;12.052;2023-05-09T03:03:03;96790.56;;;13.83;100.00
57763;BME280;43592;42.524;12.052;2023-05-09T03:05:29;96790.13;;;13.81;100.00
57763;BME280;43592;42.524;12.052;2023-05-09T03:07:54;96786.69;;;13.80;100.00
57763;BME280;43592;42.524;12.052;2023-05-09T03:10:20;96793.97;;;13.80;100.00
57763;BME280;43592;42.524;12.052;2023-05-09T03:12:46;96791.28;;;13.80;100.00
57763;BME280;43592;42.524;12.052;2023-05-09T03:15:11;96793.19;;;13.79;100.00
57763;BME280;43592;42.524;12.052;2023-05-09T03:17:37;96788.59;;;13.80;100.00
57763;BME280;43592;42.524;12.052;2023-05-09T03:20:03;96795.47;;;13.77;100.00
57763;BME280;43592;42.524;12.052;2023-05-09T03:22:30;96802.31;;;13.75;100.00
57763;BME280;43592;42.524;12.052;2023-05-09T03:24:55;96800.78;;;13.74;100.00
57763;BME280;43592;42.524;12.052;2023-05-09T03:27:21;96797.31;;;13.73;100.00
57763;BME280;43592;42.524;12.052;2023-05-09T03:29:46;96801.91;;;13.73;100.00
57763;BME280;43592;42.524;12.052;2023-05-09T03:32:12;96796.50;;;13.73;100.00
57763;BME280;43592;42.524;12.052;2023-05-09T03:34:37;96799.56;;;13.71;100.00
57763;BME280;43592;42.524;12.052;2023-05-09T03:37:03;96792.28;;;13.72;100.00
57763;BME280;43592;42.524;12.052;2023-05-09T03:39:29;96798.00;;;13.70;100.00
57763;BME280;43592;42.524;12.052;2023-05-09T03:41:54;96795.69;;;13.68;100.00
57763;BME280;43592;42.524;12.052;2023-05-09T03:44:20;96795.25;;;13.66;100.00
57763;BME280;43592;42.524;12.052;2023-05-09T03:46:46;96797.09;;;13.62;100.00
57763;BME280;43592;42.524;12.052;2023-05-09T03:49:11;96797.38;;;13.57;100.00
57763;BME280;43592;42.524;12.052;2023-05-09T03:51:37;96798.44;;;13.53;100.00
57763;BME280;43592;42.524;12.052;2023-05-09T03:54:02;96804.88;;;13.48;100.00
57763;BME280;43592;42.524;12.052;2023-05-09T03:56:28;96802.81;;;13.41;100.00
57763;BME280;43592;42.524;12.052;2023-05-09T03:58:53;96806.16;;;13.35;100.00
57763;BME280;43592;42.524;12.052;2023-05-09T04:01:19;96806.34;;;13.26;100.00
57763;BME280;43592;42.524;12.052;2023-05-09T04:03:44;96804.69;;;13.21;100.00
57763;BME280;43592;42.524;12.052;2023-05-09T04:06:10;96817.97;;;13.14;100.00
57763;BME280;43592;42.524;12.052;2023-05-09T04:08:35;96807.50;;;13.09;100.00
57763;BME280;43592;42.524;12.052;2023-05-09T04:11:01;96807.75;;;13.04;100.00
57763;BME280;43592;42.524;12.052;2023-05-09T04:13:26;96811.84;;;12.98;100.00
57763;BME280;43592;42.524;12.052;2023-05-09T04:15:54;96805.63;;;12.94;100.00
57763;BME280;43592;42.524;12.052;2023-05-09T04:18:19;96806.69;;;12.89;100.00
57763;BME280;43592;42.524;12.052;2023-05-09T04:20:45;96799.66;;;12.85;100.00
57763;BME280;43592;42.524;12.052;2023-05-09T04:23:10;96805.72;;;12.81;100.00
57763;BME280;43592;42.524;12.052;2023-05-09T04:25:36;96807.56;;;12.77;100.00
57763;BME280;43592;42.524;12.052;2023-05-09T04:28:01;96808.25;;;12.74;100.00
57763;BME280;43592;42.524;12.052;2023-05-09T04:30:26;96808.59;;;12.73;100.00
57763;BME280;43592;42.524;12.052;2023-05-09T04:32:52;96814.41;;;12.75;100.00
57763;BME280;43592;42.524;12.052;2023-05-09T04:35:19;96822.47;;;12.75;100.00
57763;BME280;43592;42.524;12.052;2023-05-09T04:37:45;96824.78;;;12.76;100.00
57763;BME280;43592;42.524;12.052;2023-05-09T04:40:11;96823.25;;;12.75;100.00
57763;BME280;43592;42.524;12.052;2023-05-09T04:42:36;96827.06;;;12.74;100.00
57763;BME280;43592;42.524;12.052;2023-05-09T04:45:03;96830.53;;;12.75;100.00
57763;BME280;43592;42.524;12.052;2023-05-09T04:47:28;96822.81;;;12.73;100.00
57763;BME280;43592;42.524;12.052;2023-05-09T04:49:54;96824.38;;;12.74;100.00
57763;BME280;43592;42.524;12.052;2023-05-09T04:52:19;96827.47;;;12.76;100.00
57763;BME280;43592;42.524;12.052;2023-05-09T04:54:45;96829.06;;;12.77;100.00
57763;BME280;43592;42.524;12.052;2023-05-09T04:57:10;96833.72;;;12.80;100.00
57763;BME280;43592;42.524;12.052;2023-05-09T04:59:36;96833.34;;;12.82;100.00
57763;BME280;43592;42.524;12.052;2023-05-09T05:02:02;96832.75;;;12.89;100.00
57763;BME280;43592;42.524;12.052;2023-05-09T05:04:27;96831.69;;;12.93;100.00
57763;BME280;43592;42.524;12.052;2023-05-09T05:06:53;96831.00;;;12.96;100.00
57763;BME280;43592;42.524;12.052;2023-05-09T05:09:19;96836.47;;;13.00;100.00
57763;BME280;43592;42.524;12.052;2023-05-09T05:11:44;96838.91;;;13.05;100.00
57763;BME280;43592;42.524;12.052;2023-05-09T05:14:10;96839.41;;;13.11;100.00
57763;BME280;43592;42.524;12.052;2023-05-09T05:16:35;96843.00;;;13.18;100.00
57763;BME280;43592;42.524;12.052;2023-05-09T05:19:01;96851.56;;;13.24;100.00
57763;BME280;43592;42.524;12.052;2023-05-09T05:21:27;96841.72;;;13.28;100.00
57763;BME280;43592;42.524;12.052;2023-05-09T05:23:52;96852.97;;;13.34;100.00
57763;BME280;43592;42.524;12.052;2023-05-09T05:26:18;96863.03;;;13.37;100.00
57763;BME280;43592;42.524;12.052;2023-05-09T05:28:43;96859.69;;;13.43;100.00
57763;BME280;43592;42.524;12.052;2023-05-09T05:31:08;96859.06;;;13.50;100.00
57763;BME280;43592;42.524;12.052;2023-05-09T05:33:34;96860.78;;;13.58;100.00
57763;BME280;43592;42.524;12.052;2023-05-09T05:35:59;96863.25;;;13.67;100.00
57763;BME280;43592;42.524;12.052;2023-05-09T05:38:25;96863.47;;;13.78;100.00
57763;BME280;43592;42.524;12.052;2023-05-09T05:40:50;96857.47;;;13.84;100.00
57763;BME280;43592;42.524;12.052;2023-05-09T05:43:16;96864.53;;;13.92;100.00
57763;BME280;43592;42.524;12.052;2023-05-09T05:45:42;96860.13;;;14.04;100.00
57763;BME280;43592;42.524;12.052;2023-05-09T05:48:07;96857.63;;;14.14;100.00
57763;BME280;43592;42.524;12.052;2023-05-09T05:50:33;96856.34;;;14.28;100.00
57763;BME280;43592;42.524;12.052;2023-05-09T05:52:58;96856.94;;;14.41;100.00
57763;BME280;43592;42.524;12.052;2023-05-09T05:55:24;96859.56;;;14.56;100.00
57763;BME280;43592;42.524;12.052;2023-05-09T05:57:49;96854.47;;;14.74;100.00
57763;BME280;43592;42.524;12.052;2023-05-09T06:00:15;96856.41;;;15.00;100.00
57763;BME280;43592;42.524;12.052;2023-05-09T06:02:41;96848.69;;;15.56;100.00
57763;BME280;43592;42.524;12.052;2023-05-09T06:05:08;96858.56;;;16.42;100.00
57763;BME280;43592;42.524;12.052;2023-05-09T06:07:34;96855.03;;;17.34;99.43
57763;BME280;43592;42.524;12.052;2023-05-09T06:09:59;96853.09;;;18.33;94.63
57763;BME280;43592;42.524;12.052;2023-05-09T06:12:25;96852.38;;;19.11;88.65
57763;BME280;43592;42.524;12.052;2023-05-09T06:14:50;96850.66;;;19.78;84.63
57763;BME280;43592;42.524;12.052;2023-05-09T06:17:16;96846.84;;;20.42;79.55
57763;BME280;43592;42.524;12.052;2023-05-09T06:19:42;96843.88;;;20.81;77.62
57763;BME280;43592;42.524;12.052;2023-05-09T06:22:07;96843.09;;;21.26;76.99
57763;BME280;43592;42.524;12.052;2023-05-09T06:24:32;96839.94;;;21.69;75.04
57763;BME280;43592;42.524;12.052;2023-05-09T06:26:58;96844.56;;;22.03;71.17
57763;BME280;43592;42.524;12.052;2023-05-09T06:29:23;96845.44;;;22.27;71.11
57763;BME280;43592;42.524;12.052;2023-05-09T06:31:49;96843.16;;;22.49;72.06
57763;BME280;43592;42.524;12.052;2023-05-09T06:34:14;96841.00;;;22.63;70.19
57763;BME280;43592;42.524;12.052;2023-05-09T06:36:40;96848.53;;;22.79;71.00
57763;BME280;43592;42.524;12.052;2023-05-09T06:39:05;96837.78;;;22.96;67.65
57763;BME280;43592;42.524;12.052;2023-05-09T06:41:31;96838.31;;;23.11;67.63
57763;BME280;43592;42.524;12.052;2023-05-09T06:43:57;96839.50;;;23.29;68.60
57763;BME280;43592;42.524;12.052;2023-05-09T06:46:22;96838.16;;;23.61;67.37
57763;BME280;43592;42.524;12.052;2023-05-09T06:48:48;96830.88;;;23.74;63.30
57763;BME280;43592;42.524;12.052;2023-05-09T06:51:13;96838.09;;;23.85;66.04
57763;BME280;43592;42.524;12.052;2023-05-09T06:53:39;96832.53;;;24.08;66.22
57763;BME280;43592;42.524;12.052;2023-05-09T06:56:05;96830.84;;;24.31;64.24
57763;BME280;43592;42.524;12.052;2023-05-09T06:58:30;96832.88;;;24.47;63.56
57763;BME280;43592;42.524;12.052;2023-05-09T07:00:56;96831.94;;;24.70;63.08
57763;BME280;43592;42.524;12.052;2023-05-09T07:03:22;96831.41;;;25.07;62.63
57763;BME280;43592;42.524;12.052;2023-05-09T07:05:47;96833.91;;;25.47;60.04
57763;BME280;43592;42.524;12.052;2023-05-09T07:08:13;96828.66;;;25.82;58.58
57763;BME280;43592;42.524;12.052;2023-05-09T07:10:38;96825.41;;;26.00;57.15
57763;BME280;43592;42.524;12.052;2023-05-09T07:13:04;96825.09;;;26.11;55.85
57763;BME280;43592;42.524;12.052;2023-05-09T07:15:30;96826.63;;;26.37;56.55
57763;BME280;43592;42.524;12.052;2023-05-09T07:17:55;96829.63;;;26.56;55.96
57763;BME280;43592;42.524;12.052;2023-05-09T07:20:21;96823.78;;;26.67;55.90
57763;BME280;43592;42.524;12.052;2023-05-09T07:22:46;96833.97;;;26.79;55.11
57763;BME280;43592;42.524;12.052;2023-05-09T07:25:11;96834.94;;;26.98;55.34
57763;BME280;43592;42.524;12.052;2023-05-09T07:27:37;96830.78;;;26.93;53.94
57763;BME280;43592;42.524;12.052;2023-05-09T07:30:03;96828.38;;;26.82;54.93
57763;BME280;43592;42.524;12.052;2023-05-09T07:32:29;96820.69;;;26.77;53.19
57763;BME280;43592;42.524;12.052;2023-05-09T07:34:54;96819.72;;;26.71;53.97
57763;BME280;43592;42.524;12.052;2023-05-09T07:37:20;96827.00;;;27.00;53.53
57763;BME280;43592;42.524;12.052;2023-05-09T07:39:45;96831.56;;;27.28;54.05
57763;BME280;43592;42.524;12.052;2023-05-09T07:42:14;96824.81;;;27.42;53.49
57763;BME280;43592;42.524;12.052;2023-05-09T07:44:40;96829.94;;;27.53;51.95
57763;BME280;43592;42.524;12.052;2023-05-09T07:47:05;96823.16;;;27.67;51.57
57763;BME280;43592;42.524;12.052;2023-05-09T07:49:33;96822.09;;;27.86;49.46
57763;BME280;43592;42.524;12.052;2023-05-09T07:51:58;96827.78;;;27.92;48.40
57763;BME280;43592;42.524;12.052;2023-05-09T07:54:24;96826.16;;;28.04;48.05
57763;BME280;43592;42.524;12.052;2023-05-09T07:56:50;96818.28;;;28.24;48.45
57763;BME280;43592;42.524;12.052;2023-05-09T07:59:15;96817.25;;;28.31;48.75
57763;BME280;43592;42.524;12.052;2023-05-09T08:01:41;96815.34;;;28.50;47.38
57763;BME280;43592;42.524;12.052;2023-05-09T08:04:07;96823.34;;;28.57;45.57
57763;BME280;43592;42.524;12.052;2023-05-09T08:06:34;96820.34;;;28.82;45.50
57763;BME280;43592;42.524;12.052;2023-05-09T08:08:59;96819.63;;;29.09;44.47
57763;BME280;43592;42.524;12.052;2023-05-09T08:11:25;96820.09;;;29.08;42.90
57763;BME280;43592;42.524;12.052;2023-05-09T08:13:50;96816.09;;;29.00;43.82
57763;BME280;43592;42.524;12.052;2023-05-09T08:16:16;96811.16;;;28.85;44.02
57763;BME280;43592;42.524;12.052;2023-05-09T08:18:42;96802.84;;;28.58;41.58
57763;BME280;43592;42.524;12.052;2023-05-09T08:21:08;96815.25;;;28.62;45.70
57763;BME280;43592;42.524;12.052;2023-05-09T08:23:33;96808.47;;;28.45;42.24
57763;BME280;43592;42.524;12.052;2023-05-09T08:25:59;96818.06;;;28.40;44.88
57763;BME280;43592;42.524;12.052;2023-05-09T08:28:25;96813.19;;;28.45;42.96
57763;BME280;43592;42.524;12.052;2023-05-09T08:30:55;96821.00;;;28.46;44.06
57763;BME280;43592;42.524;12.052;2023-05-09T08:33:22;96819.50;;;28.54;43.86
57763;BME280;43592;42.524;12.052;2023-05-09T08:35:54;96814.63;;;28.68;42.82
57763;BME280;43592;42.524;12.052;2023-05-09T08:38:20;96815.16;;;28.94;42.44
57763;BME280;43592;42.524;12.052;2023-05-09T08:40:46;96816.84;;;28.82;44.93
57763;BME280;43592;42.524;12.052;2023-05-09T08:43:12;96823.63;;;28.59;44.25
57763;BME280;43592;42.524;12.052;2023-05-09T08:45:40;96825.31;;;28.25;43.24
57763;BME280;43592;42.524;12.052;2023-05-09T08:48:07;96827.44;;;27.68;45.67
57763;BME280;43592;42.524;12.052;2023-05-09T08:50:33;96821.44;;;27.60;45.34
57763;BME280;43592;42.524;12.052;2023-05-09T08:52:59;96823.16;;;27.67;44.51
57763;BME280;43592;42.524;12.052;2023-05-09T08:55:25;96818.16;;;27.96;43.90
57763;BME280;43592;42.524;12.052;2023-05-09T08:57:51;96816.66;;;28.05;43.43
57763;BME280;43592;42.524;12.052;2023-05-09T09:00:17;96820.78;;;27.56;44.83
57763;BME280;43592;42.524;12.052;2023-05-09T09:02:44;96821.91;;;26.38;46.45
57763;BME280;43592;42.524;12.052;2023-05-09T09:05:10;96824.91;;;25.47;46.90
57763;BME280;43592;42.524;12.052;2023-05-09T09:07:35;96818.25;;;25.48;46.86
57763;BME280;43592;42.524;12.052;2023-05-09T09:10:03;96815.13;;;25.75;48.36
57763;BME280;43592;42.524;12.052;2023-05-09T09:12:30;96815.22;;;26.13;46.91
57763;BME280;43592;42.524;12.052;2023-05-09T09:14:55;96816.09;;;26.49;45.80
57763;BME280;43592;42.524;12.052;2023-05-09T09:17:25;96814.66;;;26.82;46.18
57763;BME280;43592;42.524;12.052;2023-05-09T09:19:54;96806.81;;;27.06;43.72
57763;BME280;43592;42.524;12.052;2023-05-09T09:22:20;96814.97;;;27.32;43.09
57763;BME280;43592;42.524;12.052;2023-05-09T09:24:46;96806.53;;;27.48;44.15
57763;BME280;43592;42.524;12.052;2023-05-09T09:27:12;96805.19;;;27.75;44.51
57763;BME280;43592;42.524;12.052;2023-05-09T09:29:37;96801.59;;;27.87;43.85
57763;BME280;43592;42.524;12.052;2023-05-09T09:32:04;96798.97;;;28.06;44.42
57763;BME280;43592;42.524;12.052;2023-05-09T09:34:29;96789.31;;;28.01;42.85
57763;BME280;43592;42.524;12.052;2023-05-09T09:36:55;96792.59;;;27.87;43.08
57763;BME280;43592;42.524;12.052;2023-05-09T09:39:20;96777.34;;;27.86;45.12
57763;BME280;43592;42.524;12.052;2023-05-09T09:41:46;96779.44;;;27.82;42.63
57763;BME280;43592;42.524;12.052;2023-05-09T09:44:15;96775.91;;;27.37;45.78
57763;BME280;43592;42.524;12.052;2023-05-09T09:49:15;96768.25;;;26.97;45.13
57763;BME280;43592;42.524;12.052;2023-05-09T09:51:41;96765.47;;;27.10;46.68
57763;BME280;43592;42.524;12.052;2023-05-09T09:54:07;96767.41;;;27.22;44.43
57763;BME280;43592;42.524;12.052;2023-05-09T09:56:43;96755.50;;;27.38;44.43
57763;BME280;43592;42.524;12.052;2023-05-09T10:04:21;96751.56;;;27.48;46.35
57763;BME280;43592;42.524;12.052;2023-05-09T10:06:50;96748.81;;;27.48;46.52
57763;BME280;43592;42.524;12.052;2023-05-09T10:09:17;96761.59;;;27.64;47.20
57763;BME280;43592;42.524;12.052;2023-05-09T10:11:43;96748.03;;;27.70;44.57
57763;BME280;43592;42.524;12.052;2023-05-09T10:14:10;96752.44;;;27.67;44.25
57763;BME280;43592;42.524;12.052;2023-05-09T10:16:36;96754.81;;;27.78;44.09
57763;BME280;43592;42.524;12.052;2023-05-09T10:19:02;96754.28;;;27.70;44.55
57763;BME280;43592;42.524;12.052;2023-05-09T10:21:27;96751.22;;;27.68;44.71
57763;BME280;43592;42.524;12.052;2023-05-09T10:23:53;96743.81;;;27.78;46.63
57763;BME280;43592;42.524;12.052;2023-05-09T10:26:21;96743.78;;;28.00;46.22
57763;BME280;43592;42.524;12.052;2023-05-09T10:28:49;96747.66;;;28.21;44.99
57763;BME280;43592;42.524;12.052;2023-05-09T10:31:26;96742.66;;;28.29;46.15
57763;BME280;43592;42.524;12.052;2023-05-09T10:33:52;96744.16;;;27.58;46.48
57763;BME280;43592;42.524;12.052;2023-05-09T10:36:19;96746.78;;;26.83;48.28
57763;BME280;43592;42.524;12.052;2023-05-09T10:38:48;96748.19;;;26.14;49.36
57763;BME280;43592;42.524;12.052;2023-05-09T10:41:17;96741.97;;;25.46;50.74
57763;BME280;43592;42.524;12.052;2023-05-09T10:43:43;96737.28;;;25.60;50.22
57763;BME280;43592;42.524;12.052;2023-05-09T10:46:10;96737.56;;;25.91;48.57
57763;BME280;43592;42.524;12.052;2023-05-09T10:48:37;96738.41;;;26.39;48.90
57763;BME280;43592;42.524;12.052;2023-05-09T10:51:04;96737.34;;;26.84;50.34
57763;BME280;43592;42.524;12.052;2023-05-09T10:53:40;96731.13;;;27.27;48.21
57763;BME280;43592;42.524;12.052;2023-05-09T10:56:07;96725.63;;;27.49;46.40
57763;BME280;43592;42.524;12.052;2023-05-09T10:58:33;96722.50;;;27.60;43.35
57763;BME280;43592;42.524;12.052;2023-05-09T11:01:03;96717.88;;;27.79;47.94
57763;BME280;43592;42.524;12.052;2023-05-09T11:06:21;96709.34;;;27.86;46.56
57763;BME280;43592;42.524;12.052;2023-05-09T11:09:00;96706.03;;;28.01;47.41
57763;BME280;43592;42.524;12.052;2023-05-09T11:14:32;96703.16;;;28.54;47.33
57763;BME280;43592;42.524;12.052;2023-05-09T11:17:04;96695.38;;;28.71;47.68
57763;BME280;43592;42.524;12.052;2023-05-09T11:22:15;96689.06;;;28.98;45.10
57763;BME280;43592;42.524;12.052;2023-05-09T11:24:50;96697.66;;;29.27;47.70
57763;BME280;43592;42.524;12.052;2023-05-09T11:27:22;96695.06;;;29.05;45.66
57763;BME280;43592;42.524;12.052;2023-05-09T11:29:49;96696.22;;;28.40;47.77
57763;BME280;43592;42.524;12.052;2023-05-09T11:32:15;96694.72;;;27.67;48.14
57763;BME280;43592;42.524;12.052;2023-05-09T11:34:42;96696.03;;;26.87;49.42
57763;BME280;43592;42.524;12.052;2023-05-09T11:37:09;96692.34;;;26.21;50.96
57763;BME280;43592;42.524;12.052;2023-05-09T11:42:22;96685.44;;;25.52;49.58
57763;BME280;43592;42.524;12.052;2023-05-09T11:44:48;96688.06;;;25.82;52.55
57763;BME280;43592;42.524;12.052;2023-05-09T11:47:14;96676.75;;;26.31;50.02
57763;BME280;43592;42.524;12.052;2023-05-09T11:49:43;96679.09;;;26.89;49.38
57763;BME280;43592;42.524;12.052;2023-05-09T11:52:09;96665.66;;;27.26;48.00
57763;BME280;43592;42.524;12.052;2023-05-09T11:54:35;96670.53;;;27.53;48.22
57763;BME280;43592;42.524;12.052;2023-05-09T11:57:03;96672.53;;;27.52;48.98
57763;BME280;43592;42.524;12.052;2023-05-09T11:59:29;96668.47;;;27.35;49.99
57763;BME280;43592;42.524;12.052;2023-05-09T12:01:55;96676.66;;;27.04;48.52
57763;BME280;43592;42.524;12.052;2023-05-09T12:04:20;96682.84;;;26.95;49.17
57763;BME280;43592;42.524;12.052;2023-05-09T12:06:46;96679.94;;;26.77;49.87
57763;BME280;43592;42.524;12.052;2023-05-09T12:09:13;96675.75;;;26.50;49.96
57763;BME280;43592;42.524;12.052;2023-05-09T12:11:49;96665.09;;;26.52;50.43
57763;BME280;43592;42.524;12.052;2023-05-09T12:14:33;96671.38;;;26.75;50.25
57763;BME280;43592;42.524;12.052;2023-05-09T12:16:59;96663.38;;;27.24;47.98
57763;BME280;43592;42.524;12.052;2023-05-09T12:19:25;96666.16;;;27.65;45.45
57763;BME280;43592;42.524;12.052;2023-05-09T12:21:57;96662.47;;;27.90;43.97
57763;BME280;43592;42.524;12.052;2023-05-09T12:24:23;96666.44;;;27.89;45.02
57763;BME280;43592;42.524;12.052;2023-05-09T12:26:51;96661.13;;;27.63;46.00
57763;BME280;43592;42.524;12.052;2023-05-09T12:29:17;96663.28;;;27.15;47.78
57763;BME280;43592;42.524;12.052;2023-05-09T12:31:43;96658.25;;;26.70;49.32
57763;BME280;43592;42.524;12.052;2023-05-09T12:34:09;96653.00;;;26.62;49.25
57763;BME280;43592;42.524;12.052;2023-05-09T12:36:35;96648.22;;;26.76;48.69
57763;BME280;43592;42.524;12.052;2023-05-09T12:39:01;96645.97;;;27.05;46.96
57763;BME280;43592;42.524;12.052;2023-05-09T12:41:27;96646.94;;;27.34;47.72
57763;BME280;43592;42.524;12.052;2023-05-09T12:43:53;96635.78;;;27.37;46.18
57763;BME280;43592;42.524;12.052;2023-05-09T12:46:19;96644.09;;;27.46;46.76
57763;BME280;43592;42.524;12.052;2023-05-09T12:48:45;96620.81;;;27.60;47.73
57763;BME280;43592;42.524;12.052;2023-05-09T12:51:16;96628.50;;;27.74;47.88
57763;BME280;43592;42.524;12.052;2023-05-09T12:53:43;96628.34;;;27.78;46.13
57763;BME280;43592;42.524;12.052;2023-05-09T12:56:15;96625.75;;;27.74;47.75
57763;BME280;43592;42.524;12.052;2023-05-09T12:58:54;96624.66;;;27.72;44.61
57763;BME280;43592;42.524;12.052;2023-05-09T13:01:26;96620.06;;;27.69;44.92
57763;BME280;43592;42.524;12.052;2023-05-09T13:03:53;96618.53;;;27.68;44.18
57763;BME280;43592;42.524;12.052;2023-05-09T13:06:24;96614.69;;;27.65;45.99
57763;BME280;43592;42.524;12.052;2023-05-09T13:08:56;96609.44;;;27.80;45.61
57763;BME280;43592;42.524;12.052;2023-05-09T13:11:22;96610.06;;;27.84;41.64
57763;BME280;43592;42.524;12.052;2023-05-09T13:13:48;96605.94;;;27.89;45.26